KOGD/OGD METAR and TAF weather

Enter ICAO airport designator
Station Type Date Time Source
KOGD METAR 2019/07/17 12:53 UTC NOAA

KOGD 171253Z AUTO 18005KT 10SM CLR 18/06 A2998 RMK AO2 SLP090 T01780061


Station Type Date Time Source
KOGD Decoded METAR 2019/07/17 12:53 UTC NOAA

OGDEN-HINCKLEY AIRPORT, UT, United States (KOGD) 41-12N 112-01W 1353M
Jul 17, 2019 - 08:53 AM EDT / 2019.07.17 1253 UTC
Wind: from the S (180 degrees) at 6 MPH (5 KT):0
Visibility: 10 mile(s):0
Sky conditions: clear
Temperature: 64.0 F (17.8 C)
Dew Point: 43.0 F (6.1 C)
Relative Humidity: 46%
Pressure (altimeter): 29.98 in. Hg (1015 hPa)
ob: KOGD 171253Z AUTO 18005KT 10SM CLR 18/06 A2998 RMK AO2 SLP090 T01780061
cycle: 13

Station Type Date Time Source
KOGD TAF 2019/07/17 12:22 UTC NOAA

TAF KOGD 171120Z 1712/1812 01005KT P6SM FEW150
FM171300 17006KT P6SM FEW150
FM171800 27008KT P6SM FEW120 SCT150
FM180300 17009KT P6SM SKC

Example: see airport list